sensor_id;sensor_type;location;lat;lon;timestamp;pressure;altitude;pressure_sealevel;temperature;humidity
52839;BME280;39219;53.678;9.856;2023-04-22T00:02:06;76925.38;;;-147.77;53.85
52839;BME280;39219;53.678;9.856;2023-04-22T00:04:33;76931.44;;;-147.77;54.04
52839;BME280;39219;53.678;9.856;2023-04-22T00:07:00;76933.47;;;-147.77;54.35
52839;BME280;39219;53.678;9.856;2023-04-22T00:09:26;76927.41;;;-147.77;54.14
52839;BME280;39219;53.678;9.856;2023-04-22T00:11:54;76903.13;;;-147.77;53.59
52839;BME280;39219;53.678;9.856;2023-04-22T00:14:20;76921.34;;;-147.77;53.77
52839;BME280;39219;53.678;9.856;2023-04-22T00:16:47;76925.38;;;-147.77;53.90
52839;BME280;39219;53.678;9.856;2023-04-22T00:19:13;76911.22;;;-147.77;54.02
52839;BME280;39219;53.678;9.856;2023-04-22T00:21:40;76919.31;;;-147.77;53.61
52839;BME280;39219;53.678;9.856;2023-04-22T00:24:07;76915.25;;;-147.77;53.81
52839;BME280;39219;53.678;9.856;2023-04-22T00:26:33;76909.19;;;-147.77;53.81
52839;BME280;39219;53.678;9.856;2023-04-22T00:29:01;76913.25;;;-147.77;53.46
52839;BME280;39219;53.678;9.856;2023-04-22T00:31:27;76897.06;;;-147.77;53.06
52839;BME280;39219;53.678;9.856;2023-04-22T00:33:54;76888.97;;;-147.77;52.87
52839;BME280;39219;53.678;9.856;2023-04-22T00:36:20;76891.00;;;-147.77;52.94
52839;BME280;39219;53.678;9.856;2023-04-22T00:38:48;76888.97;;;-147.77;52.63
52839;BME280;39219;53.678;9.856;2023-04-22T00:41:15;76897.06;;;-147.77;52.90
52839;BME280;39219;53.678;9.856;2023-04-22T00:43:41;76886.94;;;-147.77;52.57
52839;BME280;39219;53.678;9.856;2023-04-22T00:46:09;76888.97;;;-147.77;52.55
52839;BME280;39219;53.678;9.856;2023-04-22T00:48:36;76882.91;;;-147.77;52.09
52839;BME280;39219;53.678;9.856;2023-04-22T00:51:03;76872.78;;;-147.77;52.02
52839;BME280;39219;53.678;9.856;2023-04-22T00:53:30;76866.72;;;-147.77;51.61
52839;BME280;39219;53.678;9.856;2023-04-22T00:55:56;76854.56;;;-147.77;51.68
52839;BME280;39219;53.678;9.856;2023-04-22T00:58:27;76844.44;;;-147.77;51.10
52839;BME280;39219;53.678;9.856;2023-04-22T01:00:53;76842.44;;;-147.77;50.93
52839;BME280;39219;53.678;9.856;2023-04-22T01:03:22;76834.34;;;-147.77;50.91
52839;BME280;39219;53.678;9.856;2023-04-22T01:05:48;76826.25;;;-147.77;50.54
52839;BME280;39219;53.678;9.856;2023-04-22T01:08:15;76806.03;;;-147.77;49.99
52839;BME280;39219;53.678;9.856;2023-04-22T01:10:42;76799.94;;;-147.77;49.60
52839;BME280;39219;53.678;9.856;2023-04-22T01:13:08;76777.69;;;-147.77;49.52
52839;BME280;39219;53.678;9.856;2023-04-22T01:15:36;76777.69;;;-147.77;49.27
52839;BME280;39219;53.678;9.856;2023-04-22T01:18:02;76773.66;;;-147.77;49.08
52839;BME280;39219;53.678;9.856;2023-04-22T01:20:30;76759.50;;;-147.77;49.12
52839;BME280;39219;53.678;9.856;2023-04-22T01:22:57;76777.69;;;-147.77;48.92
52839;BME280;39219;53.678;9.856;2023-04-22T01:25:29;76759.50;;;-147.77;48.64
52839;BME280;39219;53.678;9.856;2023-04-22T01:27:56;76759.50;;;-147.77;48.85
52839;BME280;39219;53.678;9.856;2023-04-22T01:30:22;76753.41;;;-147.77;48.80
52839;BME280;39219;53.678;9.856;2023-04-22T01:32:49;76759.50;;;-147.77;48.76
52839;BME280;39219;53.678;9.856;2023-04-22T01:35:15;76755.44;;;-147.77;48.90
52839;BME280;39219;53.678;9.856;2023-04-22T01:37:42;76755.44;;;-147.77;48.69
52839;BME280;39219;53.678;9.856;2023-04-22T01:40:10;76753.41;;;-147.77;48.90
52839;BME280;39219;53.678;9.856;2023-04-22T01:42:38;76759.50;;;-147.77;48.78
52839;BME280;39219;53.678;9.856;2023-04-22T01:45:06;76773.66;;;-147.77;49.33
52839;BME280;39219;53.678;9.856;2023-04-22T01:47:32;76759.50;;;-147.77;49.17
52839;BME280;39219;53.678;9.856;2023-04-22T01:49:59;76763.53;;;-147.77;49.16
52839;BME280;39219;53.678;9.856;2023-04-22T01:52:25;76767.59;;;-147.77;49.46
52839;BME280;39219;53.678;9.856;2023-04-22T01:54:52;76759.50;;;-147.77;49.18
52839;BME280;39219;53.678;9.856;2023-04-22T01:57:19;76755.44;;;-147.77;49.46
52839;BME280;39219;53.678;9.856;2023-04-22T01:59:47;76775.66;;;-147.77;49.91
52839;BME280;39219;53.678;9.856;2023-04-22T02:02:13;76777.69;;;-147.77;50.00
52839;BME280;39219;53.678;9.856;2023-04-22T02:04:39;76765.56;;;-147.77;50.02
52839;BME280;39219;53.678;9.856;2023-04-22T02:07:06;76759.50;;;-147.77;49.81
52839;BME280;39219;53.678;9.856;2023-04-22T02:09:32;76749.38;;;-147.77;49.97
52839;BME280;39219;53.678;9.856;2023-04-22T02:11:59;76759.50;;;-147.77;50.06
52839;BME280;39219;53.678;9.856;2023-04-22T02:14:26;76753.41;;;-147.77;50.02
52839;BME280;39219;53.678;9.856;2023-04-22T02:16:54;76743.31;;;-147.77;50.25
52839;BME280;39219;53.678;9.856;2023-04-22T02:19:20;76755.44;;;-147.77;50.33
52839;BME280;39219;53.678;9.856;2023-04-22T02:21:47;76747.34;;;-147.77;50.18
52839;BME280;39219;53.678;9.856;2023-04-22T02:24:13;76723.06;;;-147.77;49.98
52839;BME280;39219;53.678;9.856;2023-04-22T02:26:40;76729.16;;;-147.77;50.00
52839;BME280;39219;53.678;9.856;2023-04-22T02:29:07;76725.09;;;-147.77;50.17
52839;BME280;39219;53.678;9.856;2023-04-22T02:31:33;76727.13;;;-147.77;50.35
52839;BME280;39219;53.678;9.856;2023-04-22T02:34:01;76723.06;;;-147.77;50.30
52839;BME280;39219;53.678;9.856;2023-04-22T02:36:28;76731.16;;;-147.77;50.59
52839;BME280;39219;53.678;9.856;2023-04-22T02:38:56;76725.09;;;-147.77;50.50
52839;BME280;39219;53.678;9.856;2023-04-22T02:41:22;76737.22;;;-147.77;50.55
52839;BME280;39219;53.678;9.856;2023-04-22T02:43:49;76739.25;;;-147.77;50.92
52839;BME280;39219;53.678;9.856;2023-04-22T02:46:15;76741.28;;;-147.77;50.99
52839;BME280;39219;53.678;9.856;2023-04-22T02:48:42;76729.16;;;-147.77;50.68
52839;BME280;39219;53.678;9.856;2023-04-22T02:51:10;76727.13;;;-147.77;51.04
52839;BME280;39219;53.678;9.856;2023-04-22T02:53:37;76733.19;;;-147.77;51.05
52839;BME280;39219;53.678;9.856;2023-04-22T02:56:03;76739.25;;;-147.77;51.38
52839;BME280;39219;53.678;9.856;2023-04-22T02:58:30;76727.13;;;-147.77;51.34
52839;BME280;39219;53.678;9.856;2023-04-22T03:00:56;76735.22;;;-147.77;51.66
52839;BME280;39219;53.678;9.856;2023-04-22T03:03:23;76753.41;;;-147.77;51.99
52839;BME280;39219;53.678;9.856;2023-04-22T03:05:50;76767.59;;;-147.77;52.58
52839;BME280;39219;53.678;9.856;2023-04-22T03:08:18;76763.53;;;-147.77;52.84
52839;BME280;39219;53.678;9.856;2023-04-22T03:10:44;76753.41;;;-147.77;52.57
52839;BME280;39219;53.678;9.856;2023-04-22T03:13:11;76751.41;;;-147.77;51.90
52839;BME280;39219;53.678;9.856;2023-04-22T03:15:38;76761.50;;;-147.77;52.34
52839;BME280;39219;53.678;9.856;2023-04-22T03:18:05;76739.25;;;-147.77;52.13
52839;BME280;39219;53.678;9.856;2023-04-22T03:20:31;76729.16;;;-147.77;51.94
52839;BME280;39219;53.678;9.856;2023-04-22T03:22:58;76725.09;;;-147.77;51.81
52839;BME280;39219;53.678;9.856;2023-04-22T03:25:26;76714.97;;;-147.77;51.96
52839;BME280;39219;53.678;9.856;2023-04-22T03:27:52;76698.81;;;-147.77;51.46
52839;BME280;39219;53.678;9.856;2023-04-22T03:30:19;76700.81;;;-147.77;51.54
52839;BME280;39219;53.678;9.856;2023-04-22T03:32:45;76702.84;;;-147.77;51.74
52839;BME280;39219;53.678;9.856;2023-04-22T03:35:12;76702.84;;;-147.77;51.66
52839;BME280;39219;53.678;9.856;2023-04-22T03:37:38;76712.97;;;-147.77;51.83
52839;BME280;39219;53.678;9.856;2023-04-22T03:40:06;76712.97;;;-147.77;51.96
52839;BME280;39219;53.678;9.856;2023-04-22T03:42:35;76714.97;;;-147.77;52.04
52839;BME280;39219;53.678;9.856;2023-04-22T03:45:01;76712.97;;;-147.77;52.36
52839;BME280;39219;53.678;9.856;2023-04-22T03:47:28;76721.06;;;-147.77;52.07
52839;BME280;39219;53.678;9.856;2023-04-22T03:49:54;76727.13;;;-147.77;52.55
52839;BME280;39219;53.678;9.856;2023-04-22T03:52:21;76723.06;;;-147.77;52.76
52839;BME280;39219;53.678;9.856;2023-04-22T03:54:47;76714.97;;;-147.77;52.72
52839;BME280;39219;53.678;9.856;2023-04-22T03:57:14;76712.97;;;-147.77;52.85
52839;BME280;39219;53.678;9.856;2023-04-22T03:59:41;76714.97;;;-147.77;52.98
52839;BME280;39219;53.678;9.856;2023-04-22T04:02:08;76723.06;;;-147.77;53.16
52839;BME280;39219;53.678;9.856;2023-04-22T04:04:35;76723.06;;;-147.77;52.99
52839;BME280;39219;53.678;9.856;2023-04-22T04:07:02;76723.06;;;-147.77;53.33
52839;BME280;39219;53.678;9.856;2023-04-22T04:09:28;76723.06;;;-147.77;53.40
52839;BME280;39219;53.678;9.856;2023-04-22T04:11:54;76710.94;;;-147.77;53.80
52839;BME280;39219;53.678;9.856;2023-04-22T04:14:22;76710.94;;;-147.77;53.25
52839;BME280;39219;53.678;9.856;2023-04-22T04:16:50;76712.97;;;-147.77;53.55
52839;BME280;39219;53.678;9.856;2023-04-22T04:19:16;76717.00;;;-147.77;53.51
52839;BME280;39219;53.678;9.856;2023-04-22T04:21:43;76710.94;;;-147.77;53.84
52839;BME280;39219;53.678;9.856;2023-04-22T04:24:09;76714.97;;;-147.77;53.55
52839;BME280;39219;53.678;9.856;2023-04-22T04:26:36;76712.97;;;-147.77;53.81
52839;BME280;39219;53.678;9.856;2023-04-22T04:29:02;76704.88;;;-147.77;53.61
52839;BME280;39219;53.678;9.856;2023-04-22T04:31:29;76712.97;;;-147.77;53.85
52839;BME280;39219;53.678;9.856;2023-04-22T04:33:57;76694.75;;;-147.77;53.74
52839;BME280;39219;53.678;9.856;2023-04-22T04:36:24;76686.66;;;-147.77;53.57
52839;BME280;39219;53.678;9.856;2023-04-22T04:38:53;76682.63;;;-147.77;53.47
52839;BME280;39219;53.678;9.856;2023-04-22T04:41:19;76678.56;;;-147.77;53.52
52839;BME280;39219;53.678;9.856;2023-04-22T04:43:46;76662.38;;;-147.77;53.33
52839;BME280;39219;53.678;9.856;2023-04-22T04:46:12;76656.31;;;-147.77;53.42
52839;BME280;39219;53.678;9.856;2023-04-22T04:48:39;76662.38;;;-147.77;53.29
52839;BME280;39219;53.678;9.856;2023-04-22T04:51:07;76656.31;;;-147.77;53.21
52839;BME280;39219;53.678;9.856;2023-04-22T04:53:35;76654.28;;;-147.77;53.51
52839;BME280;39219;53.678;9.856;2023-04-22T04:56:02;76638.09;;;-147.77;53.04
52839;BME280;39219;53.678;9.856;2023-04-22T04:58:28;76628.00;;;-147.77;52.82
52839;BME280;39219;53.678;9.856;2023-04-22T05:00:55;76609.78;;;-147.77;52.62
52839;BME280;39219;53.678;9.856;2023-04-22T05:03:21;76611.81;;;-147.77;52.61
52839;BME280;39219;53.678;9.856;2023-04-22T05:05:48;76609.78;;;-147.77;53.13
52839;BME280;39219;53.678;9.856;2023-04-22T05:08:16;76597.66;;;-147.77;52.59
52839;BME280;39219;53.678;9.856;2023-04-22T05:10:42;76593.59;;;-147.77;52.59
52839;BME280;39219;53.678;9.856;2023-04-22T05:13:09;76585.50;;;-147.77;52.65
52839;BME280;39219;53.678;9.856;2023-04-22T05:15:35;76565.28;;;-147.77;52.50
52839;BME280;39219;53.678;9.856;2023-04-22T05:18:02;76555.16;;;-147.77;52.23
52839;BME280;39219;53.678;9.856;2023-04-22T05:20:29;76545.06;;;-147.77;51.76
52839;BME280;39219;53.678;9.856;2023-04-22T05:22:55;76532.91;;;-147.77;51.73
52839;BME280;39219;53.678;9.856;2023-04-22T05:25:23;76502.56;;;-147.77;51.12
52839;BME280;39219;53.678;9.856;2023-04-22T05:27:49;76389.28;;;-147.77;49.61
52839;BME280;39219;53.678;9.856;2023-04-22T05:30:16;76211.28;;;-147.77;46.28
52839;BME280;39219;53.678;9.856;2023-04-22T05:32:42;76015.09;;;-147.77;42.48
52839;BME280;39219;53.678;9.856;2023-04-22T05:35:09;75847.22;;;-147.77;40.00
52839;BME280;39219;53.678;9.856;2023-04-22T05:37:36;75780.47;;;-147.77;38.59
52839;BME280;39219;53.678;9.856;2023-04-22T05:40:03;75794.63;;;-147.77;38.62
52839;BME280;39219;53.678;9.856;2023-04-22T05:42:31;75774.41;;;-147.77;38.15
52839;BME280;39219;53.678;9.856;2023-04-22T05:44:57;75721.81;;;-147.77;38.19
52839;BME280;39219;53.678;9.856;2023-04-22T05:47:23;75683.41;;;-147.77;37.22
52839;BME280;39219;53.678;9.856;2023-04-22T05:49:50;75626.75;;;-147.77;36.39
52839;BME280;39219;53.678;9.856;2023-04-22T05:52:16;75551.94;;;-147.77;35.58
52839;BME280;39219;53.678;9.856;2023-04-22T05:54:43;75464.97;;;-147.77;35.48
52839;BME280;39219;53.678;9.856;2023-04-22T05:57:10;75369.91;;;-147.77;34.17
52839;BME280;39219;53.678;9.856;2023-04-22T05:59:38;75473.06;;;-147.77;34.31
52839;BME280;39219;53.678;9.856;2023-04-22T06:02:04;75479.13;;;-147.77;35.02
52839;BME280;39219;53.678;9.856;2023-04-22T06:04:30;75386.09;;;-147.77;34.00
52839;BME280;39219;53.678;9.856;2023-04-22T06:06:58;75278.91;;;-147.77;33.07
52839;BME280;39219;53.678;9.856;2023-04-22T06:09:25;75151.53;;;-147.77;31.57
52839;BME280;39219;53.678;9.856;2023-04-22T06:11:51;75070.63;;;-147.77;31.06
52839;BME280;39219;53.678;9.856;2023-04-22T06:14:18;75028.16;;;-147.77;30.55
52839;BME280;39219;53.678;9.856;2023-04-22T06:16:45;75044.34;;;-147.77;31.42
52839;BME280;39219;53.678;9.856;2023-04-22T06:19:14;74927.06;;;-147.77;29.96
52839;BME280;39219;53.678;9.856;2023-04-22T06:21:40;74927.06;;;-147.77;29.64
52839;BME280;39219;53.678;9.856;2023-04-22T06:24:07;74916.94;;;-147.77;29.66
52839;BME280;39219;53.678;9.856;2023-04-22T06:26:34;74963.47;;;-147.77;29.32
52839;BME280;39219;53.678;9.856;2023-04-22T06:29:01;75082.78;;;-147.77;30.95
52839;BME280;39219;53.678;9.856;2023-04-22T06:31:29;74959.41;;;-147.77;30.47
52839;BME280;39219;53.678;9.856;2023-04-22T06:33:57;74795.63;;;-147.77;28.72
52839;BME280;39219;53.678;9.856;2023-04-22T06:36:24;74795.63;;;-147.77;28.81
52839;BME280;39219;53.678;9.856;2023-04-22T06:38:51;74753.16;;;-147.77;28.60
52839;BME280;39219;53.678;9.856;2023-04-22T06:41:19;74730.94;;;-147.77;28.38
52839;BME280;39219;53.678;9.856;2023-04-22T06:43:46;74797.66;;;-147.77;28.24
52839;BME280;39219;53.678;9.856;2023-04-22T06:46:14;74765.31;;;-147.77;28.84
52839;BME280;39219;53.678;9.856;2023-04-22T06:48:41;74708.69;;;-147.77;28.40
52839;BME280;39219;53.678;9.856;2023-04-22T06:51:09;74690.50;;;-147.77;28.05
52839;BME280;39219;53.678;9.856;2023-04-22T06:53:35;74983.69;;;-147.77;30.53
52839;BME280;39219;53.678;9.856;2023-04-22T06:56:02;75026.16;;;-147.77;31.09
52839;BME280;39219;53.678;9.856;2023-04-22T06:58:29;75117.16;;;-147.77;31.42
52839;BME280;39219;53.678;9.856;2023-04-22T07:00:56;75036.25;;;-147.77;30.50
52839;BME280;39219;53.678;9.856;2023-04-22T07:03:22;75167.69;;;-147.77;32.13
52839;BME280;39219;53.678;9.856;2023-04-22T07:05:49;75082.78;;;-147.77;32.33
52839;BME280;39219;53.678;9.856;2023-04-22T07:08:17;75080.75;;;-147.77;31.21
52839;BME280;39219;53.678;9.856;2023-04-22T07:10:44;75105.00;;;-147.77;31.07
52839;BME280;39219;53.678;9.856;2023-04-22T07:13:10;75115.13;;;-147.77;31.64
52839;BME280;39219;53.678;9.856;2023-04-22T07:15:37;75054.47;;;-147.77;31.73
52839;BME280;39219;53.678;9.856;2023-04-22T07:18:03;75048.38;;;-147.77;31.91
52839;BME280;39219;53.678;9.856;2023-04-22T07:20:30;74973.56;;;-147.77;30.95
52839;BME280;39219;53.678;9.856;2023-04-22T07:22:56;75003.91;;;-147.77;32.06
52839;BME280;39219;53.678;9.856;2023-04-22T07:25:24;74987.72;;;-147.77;31.14
52839;BME280;39219;53.678;9.856;2023-04-22T07:27:50;75058.50;;;-147.77;31.18
52839;BME280;39219;53.678;9.856;2023-04-22T07:30:17;74999.84;;;-147.77;31.66
52839;BME280;39219;53.678;9.856;2023-04-22T07:32:43;75068.63;;;-147.77;31.49
52839;BME280;39219;53.678;9.856;2023-04-22T07:35:10;75060.53;;;-147.77;31.66
52839;BME280;39219;53.678;9.856;2023-04-22T07:37:36;75103.00;;;-147.77;32.77
52839;BME280;39219;53.678;9.856;2023-04-22T07:40:04;75183.88;;;-147.77;34.30
52839;BME280;39219;53.678;9.856;2023-04-22T07:42:37;75274.88;;;-147.77;34.42
52839;BME280;39219;53.678;9.856;2023-04-22T07:45:04;75222.31;;;-147.77;33.56
52839;BME280;39219;53.678;9.856;2023-04-22T07:47:31;75232.41;;;-147.77;33.83
52839;BME280;39219;53.678;9.856;2023-04-22T07:49:58;75056.47;;;-147.77;33.23
52839;BME280;39219;53.678;9.856;2023-04-22T07:52:25;74975.59;;;-147.77;32.49
52839;BME280;39219;53.678;9.856;2023-04-22T07:54:51;74923.03;;;-147.77;30.87
52839;BME280;39219;53.678;9.856;2023-04-22T07:57:18;74945.25;;;-147.77;31.75
52839;BME280;39219;53.678;9.856;2023-04-22T07:59:47;75032.22;;;-147.77;32.79
52839;BME280;39219;53.678;9.856;2023-04-22T08:02:14;75105.00;;;-147.77;32.98
52839;BME280;39219;53.678;9.856;2023-04-22T08:04:41;74987.72;;;-147.77;32.53
52839;BME280;39219;53.678;9.856;2023-04-22T08:07:07;75003.91;;;-147.77;31.70
52839;BME280;39219;53.678;9.856;2023-04-22T08:09:34;75003.91;;;-147.77;32.23
52839;BME280;39219;53.678;9.856;2023-04-22T08:12:00;74969.53;;;-147.77;32.48
52839;BME280;39219;53.678;9.856;2023-04-22T08:14:27;74967.50;;;-147.77;32.84
52839;BME280;39219;53.678;9.856;2023-04-22T08:16:55;74931.09;;;-147.77;31.71
52839;BME280;39219;53.678;9.856;2023-04-22T08:19:21;74927.06;;;-147.77;32.88
52839;BME280;39219;53.678;9.856;2023-04-22T08:21:48;74902.81;;;-147.77;31.78
52839;BME280;39219;53.678;9.856;2023-04-22T08:24:15;74906.84;;;-147.77;32.18
52839;BME280;39219;53.678;9.856;2023-04-22T08:26:42;74957.41;;;-147.77;32.58
52839;BME280;39219;53.678;9.856;2023-04-22T08:29:08;74929.09;;;-147.77;32.75
52839;BME280;39219;53.678;9.856;2023-04-22T08:31:35;74931.09;;;-147.77;32.45
52839;BME280;39219;53.678;9.856;2023-04-22T08:34:03;74947.28;;;-147.77;33.70
52839;BME280;39219;53.678;9.856;2023-04-22T08:36:29;74910.88;;;-147.77;32.03
52839;BME280;39219;53.678;9.856;2023-04-22T08:38:56;74874.50;;;-147.77;32.06
52839;BME280;39219;53.678;9.856;2023-04-22T08:41:22;74848.19;;;-147.77;31.12
52839;BME280;39219;53.678;9.856;2023-04-22T08:43:50;74846.19;;;-147.77;32.23
52839;BME280;39219;53.678;9.856;2023-04-22T08:46:18;74906.84;;;-147.77;32.08
52839;BME280;39219;53.678;9.856;2023-04-22T08:48:45;74916.94;;;-147.77;33.85
52839;BME280;39219;53.678;9.856;2023-04-22T08:51:15;74945.25;;;-147.77;33.79
52839;BME280;39219;53.678;9.856;2023-04-22T08:53:42;74927.06;;;-147.77;34.12
52839;BME280;39219;53.678;9.856;2023-04-22T08:56:09;74927.06;;;-147.77;33.83
52839;BME280;39219;53.678;9.856;2023-04-22T08:58:36;74860.34;;;-147.77;33.19
52839;BME280;39219;53.678;9.856;2023-04-22T09:01:04;74836.06;;;-147.77;33.21
52839;BME280;39219;53.678;9.856;2023-04-22T09:03:30;74803.72;;;-147.77;33.98
52839;BME280;39219;53.678;9.856;2023-04-22T09:05:58;74870.44;;;-147.77;33.14
52839;BME280;39219;53.678;9.856;2023-04-22T09:08:28;74840.13;;;-147.77;34.30
52839;BME280;39219;53.678;9.856;2023-04-22T09:10:54;74890.66;;;-147.77;33.05
52839;BME280;39219;53.678;9.856;2023-04-22T09:13:21;74882.56;;;-147.77;33.98
52839;BME280;39219;53.678;9.856;2023-04-22T09:15:48;74993.78;;;-147.77;34.62
52839;BME280;39219;53.678;9.856;2023-04-22T09:18:15;75036.25;;;-147.77;35.87
52839;BME280;39219;53.678;9.856;2023-04-22T09:20:42;75133.31;;;-147.77;36.67
52839;BME280;39219;53.678;9.856;2023-04-22T09:23:11;75123.22;;;-147.77;37.49
52839;BME280;39219;53.678;9.856;2023-04-22T09:25:39;75068.63;;;-147.77;35.92
52839;BME280;39219;53.678;9.856;2023-04-22T09:28:10;74983.69;;;-147.77;35.93
52839;BME280;39219;53.678;9.856;2023-04-22T09:30:37;74937.19;;;-147.77;35.41
52839;BME280;39219;53.678;9.856;2023-04-22T09:33:05;74953.34;;;-147.77;33.58
52839;BME280;39219;53.678;9.856;2023-04-22T09:35:34;75042.31;;;-147.77;36.90
52839;BME280;39219;53.678;9.856;2023-04-22T09:38:02;75007.94;;;-147.77;34.85
52839;BME280;39219;53.678;9.856;2023-04-22T09:40:30;75028.16;;;-147.77;35.99
52839;BME280;39219;53.678;9.856;2023-04-22T09:43:02;75036.25;;;-147.77;35.12
52839;BME280;39219;53.678;9.856;2023-04-22T09:45:31;75060.53;;;-147.77;36.29
52839;BME280;39219;53.678;9.856;2023-04-22T09:48:01;75072.66;;;-147.77;37.09
52839;BME280;39219;53.678;9.856;2023-04-22T09:50:28;75012.00;;;-147.77;36.29
52839;BME280;39219;53.678;9.856;2023-04-22T09:52:57;74973.56;;;-147.77;35.51
52839;BME280;39219;53.678;9.856;2023-04-22T09:55:26;74921.00;;;-147.77;36.12
52839;BME280;39219;53.678;9.856;2023-04-22T09:57:54;74898.75;;;-147.77;35.48
52839;BME280;39219;53.678;9.856;2023-04-22T10:00:26;74882.56;;;-147.77;36.39
52839;BME280;39219;53.678;9.856;2023-04-22T10:02:53;74902.81;;;-147.77;36.14
52839;BME280;39219;53.678;9.856;2023-04-22T10:05:19;74884.59;;;-147.77;35.01
52839;BME280;39219;53.678;9.856;2023-04-22T10:07:46;74868.41;;;-147.77;34.42
52839;BME280;39219;53.678;9.856;2023-04-22T10:10:14;74935.16;;;-147.77;34.69
52839;BME280;39219;53.678;9.856;2023-04-22T10:12:40;74945.25;;;-147.77;35.70
52839;BME280;39219;53.678;9.856;2023-04-22T10:15:08;74904.81;;;-147.77;35.38
52839;BME280;39219;53.678;9.856;2023-04-22T10:17:37;74898.75;;;-147.77;34.79
52839;BME280;39219;53.678;9.856;2023-04-22T10:20:07;74880.56;;;-147.77;36.53
52839;BME280;39219;53.678;9.856;2023-04-22T10:22:39;74886.63;;;-147.77;35.06
52839;BME280;39219;53.678;9.856;2023-04-22T10:25:10;74886.63;;;-147.77;34.00
52839;BME280;39219;53.678;9.856;2023-04-22T10:27:37;74900.78;;;-147.77;35.40
52839;BME280;39219;53.678;9.856;2023-04-22T10:30:06;74856.28;;;-147.77;36.21
52839;BME280;39219;53.678;9.856;2023-04-22T10:32:33;74880.56;;;-147.77;35.31
52839;BME280;39219;53.678;9.856;2023-04-22T10:35:12;74896.72;;;-147.77;35.11
52839;BME280;39219;53.678;9.856;2023-04-22T10:37:43;74884.59;;;-147.77;34.80
52839;BME280;39219;53.678;9.856;2023-04-22T10:40:14;74910.88;;;-147.77;34.13
52839;BME280;39219;53.678;9.856;2023-04-22T10:42:45;74896.72;;;-147.77;34.29
52839;BME280;39219;53.678;9.856;2023-04-22T10:45:13;74870.44;;;-147.77;34.96
52839;BME280;39219;53.678;9.856;2023-04-22T10:47:41;74795.63;;;-147.77;34.92
52839;BME280;39219;53.678;9.856;2023-04-22T10:50:11;74779.44;;;-147.77;33.85
52839;BME280;39219;53.678;9.856;2023-04-22T10:52:38;74777.44;;;-147.77;35.11
52839;BME280;39219;53.678;9.856;2023-04-22T10:55:05;74777.44;;;-147.77;35.41
52839;BME280;39219;53.678;9.856;2023-04-22T10:57:35;74761.25;;;-147.77;34.67
52839;BME280;39219;53.678;9.856;2023-04-22T11:00:38;74842.13;;;-147.77;33.26
52839;BME280;39219;53.678;9.856;2023-04-22T11:03:08;74787.53;;;-147.77;34.76
52839;BME280;39219;53.678;9.856;2023-04-22T11:05:36;74779.44;;;-147.77;35.43
52839;BME280;39219;53.678;9.856;2023-04-22T11:08:05;74779.44;;;-147.77;33.79
52839;BME280;39219;53.678;9.856;2023-04-22T11:10:34;74771.38;;;-147.77;33.88
52839;BME280;39219;53.678;9.856;2023-04-22T11:13:05;74757.22;;;-147.77;34.67
52839;BME280;39219;53.678;9.856;2023-04-22T11:15:34;74726.88;;;-147.77;35.48
52839;BME280;39219;53.678;9.856;2023-04-22T11:18:02;74739.00;;;-147.77;34.40
52839;BME280;39219;53.678;9.856;2023-04-22T11:20:29;74690.50;;;-147.77;35.34
52839;BME280;39219;53.678;9.856;2023-04-22T11:22:57;74684.41;;;-147.77;33.07
52839;BME280;39219;53.678;9.856;2023-04-22T11:25:25;74696.56;;;-147.77;33.49
52839;BME280;39219;53.678;9.856;2023-04-22T11:27:52;74737.00;;;-147.77;33.10
52839;BME280;39219;53.678;9.856;2023-04-22T11:30:20;74704.63;;;-147.77;36.22
52839;BME280;39219;53.678;9.856;2023-04-22T11:32:48;74710.72;;;-147.77;34.28
52839;BME280;39219;53.678;9.856;2023-04-22T11:35:18;74718.78;;;-147.77;35.14
52839;BME280;39219;53.678;9.856;2023-04-22T11:37:46;74743.06;;;-147.77;34.00
52839;BME280;39219;53.678;9.856;2023-04-22T11:40:16;74670.28;;;-147.77;35.33
52839;BME280;39219;53.678;9.856;2023-04-22T11:42:43;74759.22;;;-147.77;35.26
52839;BME280;39219;53.678;9.856;2023-04-22T11:45:10;74753.16;;;-147.77;34.46
52839;BME280;39219;53.678;9.856;2023-04-22T11:47:39;74700.59;;;-147.77;35.52
52839;BME280;39219;53.678;9.856;2023-04-22T11:50:07;74666.22;;;-147.77;33.73
52839;BME280;39219;53.678;9.856;2023-04-22T11:52:43;74666.22;;;-147.77;34.74
52839;BME280;39219;53.678;9.856;2023-04-22T11:55:10;74643.97;;;-147.77;35.17
52839;BME280;39219;53.678;9.856;2023-04-22T11:57:38;74601.53;;;-147.77;34.73
52839;BME280;39219;53.678;9.856;2023-04-22T12:00:06;74573.22;;;-147.77;34.00
52839;BME280;39219;53.678;9.856;2023-04-22T12:02:35;74607.59;;;-147.77;34.18
52839;BME280;39219;53.678;9.856;2023-04-22T12:05:02;74601.53;;;-147.77;35.40
52839;BME280;39219;53.678;9.856;2023-04-22T12:07:29;74601.53;;;-147.77;32.97
52839;BME280;39219;53.678;9.856;2023-04-22T12:09:57;74599.50;;;-147.77;33.81
52839;BME280;39219;53.678;9.856;2023-04-22T12:12:26;74593.44;;;-147.77;32.32
52839;BME280;39219;53.678;9.856;2023-04-22T12:14:54;74587.38;;;-147.77;35.28
52839;BME280;39219;53.678;9.856;2023-04-22T12:17:23;74629.81;;;-147.77;34.76
52839;BME280;39219;53.678;9.856;2023-04-22T12:19:53;74619.72;;;-147.77;33.17
52839;BME280;39219;53.678;9.856;2023-04-22T12:22:24;74637.91;;;-147.77;33.58
52839;BME280;39219;53.678;9.856;2023-04-22T12:24:51;74650.06;;;-147.77;34.25
52839;BME280;39219;53.678;9.856;2023-04-22T12:27:17;74670.28;;;-147.77;35.97
52839;BME280;39219;53.678;9.856;2023-04-22T12:29:50;74666.22;;;-147.77;34.87
52839;BME280;39219;53.678;9.856;2023-04-22T12:32:19;74635.91;;;-147.77;33.67
52839;BME280;39219;53.678;9.856;2023-04-22T12:34:46;74607.59;;;-147.77;33.12
52839;BME280;39219;53.678;9.856;2023-04-22T12:37:12;74615.69;;;-147.77;34.15
52839;BME280;39219;53.678;9.856;2023-04-22T12:39:39;74617.69;;;-147.77;34.90
52839;BME280;39219;53.678;9.856;2023-04-22T12:42:06;74658.13;;;-147.77;35.11